Time;durP1;ratioP1;P1;durP2;ratioP2;P2;SDS_P1;SDS_P2;PMS_P1;PMS_P2;Temp;Humidity;BMP_temperature;BMP_pressure;BME280_temperature;BME280_humidity;BME280_pressure;Samples;Min_cycle;Max_cycle;Signal;HPM_P1;HPM_P2
2022/05/16 00:02:14;;;;;;;2.27;2.07;;;18.60;34.30;;;;;;4938333;29;20461;-75
2022/05/16 00:04:42;;;;;;;3.10;2.77;;;18.60;34.50;;;;;;4938232;29;20548;-75
2022/05/16 00:07:09;;;;;;;2.90;2.23;;;18.50;34.50;;;;;;4937984;29;20563;-76
2022/05/16 00:09:36;;;;;;;4.30;2.60;;;18.50;34.60;;;;;;4937846;29;20453;-74
2022/05/16 00:12:05;;;;;;;2.77;2.43;;;18.50;34.70;;;;;;4937697;29;20454;-78
2022/05/16 00:14:31;;;;;;;4.00;2.60;;;18.50;35.00;;;;;;4937283;29;20518;-76
2022/05/16 00:17:00;;;;;;;2.60;2.40;;;18.40;36.10;;;;;;4937989;29;20470;-75
2022/05/16 00:19:27;;;;;;;6.47;2.43;;;18.40;35.50;;;;;;4938492;29;20466;-75
2022/05/16 00:21:53;;;;;;;4.33;2.40;;;18.40;35.70;;;;;;4938348;29;20869;-75
2022/05/16 00:24:24;;;;;;;6.80;2.17;;;18.30;35.80;;;;;;4938595;29;20490;-75
2022/05/16 00:26:50;;;;;;;2.90;2.60;;;18.30;36.50;;;;;;4939371;29;21049;-75
2022/05/16 00:29:17;;;;;;;2.00;1.90;;;18.30;36.60;;;;;;4938400;29;20454;-75
2022/05/16 00:31:44;;;;;;;4.90;2.60;;;18.30;37.20;;;;;;4940066;29;20425;-75
2022/05/16 00:34:12;;;;;;;3.37;2.57;;;18.20;37.10;;;;;;4939992;29;20487;-75
2022/05/16 00:36:39;;;;;;;3.83;2.80;;;18.10;37.00;;;;;;4947922;29;20466;-76
2022/05/16 00:39:06;;;;;;;2.60;2.40;;;18.10;37.00;;;;;;4955141;29;20429;-76
2022/05/16 00:41:33;;;;;;;2.70;2.50;;;18.00;36.90;;;;;;4952242;28;20437;-75
2022/05/16 00:44:00;;;;;;;3.10;2.20;;;18.00;37.10;;;;;;4956253;29;20458;-76
2022/05/16 00:46:30;;;;;;;5.83;2.70;;;17.90;37.70;;;;;;4957172;28;20454;-75
2022/05/16 00:48:57;;;;;;;3.17;2.87;;;17.90;38.00;;;;;;4943838;29;20458;-74
2022/05/16 00:51:29;;;;;;;3.40;3.00;;;17.90;38.10;;;;;;4937454;29;20462;-76
2022/05/16 00:53:58;;;;;;;4.27;2.20;;;17.90;38.00;;;;;;4937292;29;20490;-75
2022/05/16 00:56:27;;;;;;;3.23;2.40;;;17.90;37.90;;;;;;4936883;29;20429;-74
2022/05/16 00:58:54;;;;;;;3.70;2.50;;;17.90;37.90;;;;;;4937003;29;20446;-75
2022/05/16 01:06:54;;;;;;;4.40;2.90;;;17.90;38.50;;;;;;4936645;29;20428;-76
2022/05/16 01:09:21;;;;;;;2.90;2.47;;;17.90;38.60;;;;;;4938300;29;20513;-76
2022/05/16 01:11:48;;;;;;;2.87;2.43;;;17.90;38.80;;;;;;4940991;29;20458;-75
2022/05/16 01:14:43;;;;;;;2.90;2.60;;;18.00;38.90;;;;;;4936019;29;20476;-75
2022/05/16 01:17:12;;;;;;;2.73;2.50;;;18.10;38.80;;;;;;4936304;29;20481;-75
2022/05/16 01:19:38;;;;;;;2.83;2.63;;;18.00;38.90;;;;;;4936319;29;20462;-75
2022/05/16 01:22:17;;;;;;;3.93;2.40;;;18.10;38.90;;;;;;4936238;29;20522;-75
2022/05/16 01:24:45;;;;;;;4.57;3.40;;;18.20;39.00;;;;;;4936337;29;20438;-75
2022/05/16 01:27:11;;;;;;;3.50;3.10;;;18.20;38.80;;;;;;4935595;29;20470;-74
2022/05/16 01:29:38;;;;;;;3.67;3.10;;;18.20;38.90;;;;;;4935889;29;20455;-75
2022/05/16 01:32:06;;;;;;;4.40;3.20;;;18.30;39.20;;;;;;4936080;29;20553;-75
2022/05/16 01:34:33;;;;;;;4.00;3.10;;;18.40;39.10;;;;;;4935965;29;20533;-75
2022/05/16 01:37:00;;;;;;;5.00;2.77;;;18.50;39.30;;;;;;4936210;29;20839;-75
2022/05/16 01:39:28;;;;;;;4.93;3.00;;;18.50;39.10;;;;;;4935929;29;20444;-75
2022/05/16 01:41:55;;;;;;;4.40;3.03;;;18.60;39.40;;;;;;4936362;29;20454;-75
2022/05/16 01:44:22;;;;;;;3.37;3.07;;;18.60;39.60;;;;;;4935737;29;20881;-77
2022/05/16 01:46:49;;;;;;;3.43;3.20;;;18.60;39.70;;;;;;4935701;29;20555;-75
2022/05/16 01:49:15;;;;;;;3.40;3.10;;;18.60;40.60;;;;;;4935645;29;20458;-75
2022/05/16 01:51:42;;;;;;;6.07;3.47;;;18.60;40.00;;;;;;4935782;29;20454;-76
2022/05/16 01:54:10;;;;;;;4.70;3.27;;;18.50;40.30;;;;;;4935496;29;20500;-75
2022/05/16 01:56:40;;;;;;;7.10;3.37;;;18.50;40.80;;;;;;4935533;29;20440;-75
2022/05/16 01:59:08;;;;;;;4.13;3.10;;;18.40;42.00;;;;;;4935330;29;20462;-75
2022/05/16 02:01:34;;;;;;;6.00;3.60;;;18.40;41.90;;;;;;4935683;29;20510;-74
2022/05/16 02:04:01;;;;;;;4.40;3.23;;;18.40;42.40;;;;;;4935542;29;20815;-75
2022/05/16 02:06:28;;;;;;;4.20;3.67;;;18.40;42.60;;;;;;4935684;29;20577;-75
2022/05/16 02:08:55;;;;;;;4.33;3.40;;;18.40;42.80;;;;;;4935215;29;20486;-76
2022/05/16 02:11:22;;;;;;;4.17;3.77;;;18.30;43.00;;;;;;4935486;29;20603;-75
2022/05/16 02:13:50;;;;;;;4.17;3.80;;;18.30;43.40;;;;;;4935633;29;20490;-74
2022/05/16 02:16:18;;;;;;;6.13;3.50;;;18.30;43.80;;;;;;4935700;29;20463;-75
2022/05/16 02:18:46;;;;;;;4.93;3.13;;;18.20;43.80;;;;;;4935408;29;20545;-74
2022/05/16 02:26:46;;;;;;;6.20;3.57;;;18.00;46.00;;;;;;4945776;29;20445;-75
2022/05/16 02:29:15;;;;;;;6.00;3.60;;;17.90;46.20;;;;;;4945017;29;20562;-74
2022/05/16 02:31:42;;;;;;;6.07;3.87;;;17.80;46.80;;;;;;4936923;29;20917;-74
2022/05/16 02:34:09;;;;;;;3.87;3.57;;;17.80;46.80;;;;;;4936239;29;20615;-75
2022/05/16 02:36:36;;;;;;;7.07;3.63;;;17.70;47.50;;;;;;4936014;29;20797;-76
2022/05/16 02:39:03;;;;;;;4.03;3.70;;;17.70;46.70;;;;;;4936136;29;20458;-75
2022/05/16 02:41:30;;;;;;;4.30;3.90;;;17.80;46.80;;;;;;4936838;29;20437;-75
2022/05/16 02:43:57;;;;;;;3.97;3.67;;;17.90;46.90;;;;;;4937137;29;20824;-76
2022/05/16 02:46:25;;;;;;;4.50;4.10;;;18.00;47.00;;;;;;4937365;29;20450;-76
2022/05/16 02:48:52;;;;;;;3.83;3.50;;;18.00;47.00;;;;;;4938261;29;20437;-76
2022/05/16 02:51:19;;;;;;;4.20;3.87;;;18.00;47.00;;;;;;4939344;29;20486;-75
2022/05/16 02:53:46;;;;;;;8.03;4.50;;;18.00;47.00;;;;;;4941911;29;20458;-75
2022/05/16 02:56:12;;;;;;;4.57;4.17;;;17.90;46.90;;;;;;4956518;29;20498;-76
2022/05/16 02:58:40;;;;;;;9.13;4.50;;;17.90;47.60;;;;;;4951422;28;20465;-76
2022/05/16 03:01:08;;;;;;;4.90;4.50;;;17.80;48.50;;;;;;4953337;29;20488;-76
2022/05/16 03:03:36;;;;;;;4.50;4.10;;;17.80;49.20;;;;;;4959642;28;20429;-76
2022/05/16 03:06:04;;;;;;;7.03;4.10;;;17.70;49.40;;;;;;4970995;29;20445;-75
2022/05/16 03:08:30;;;;;;;4.70;4.17;;;17.70;50.00;;;;;;4955356;28;20463;-75
2022/05/16 03:10:58;;;;;;;6.50;4.63;;;17.70;50.30;;;;;;4955243;28;20445;-74
2022/05/16 03:13:24;;;;;;;4.73;4.33;;;17.70;50.60;;;;;;4955101;28;20457;-75
2022/05/16 03:15:52;;;;;;;5.00;3.63;;;17.70;50.80;;;;;;4953894;28;20467;-75
2022/05/16 03:18:19;;;;;;;5.47;4.33;;;17.70;50.80;;;;;;4953619;28;20904;-74
2022/05/16 03:20:47;;;;;;;8.33;4.10;;;17.70;50.90;;;;;;4953370;28;20822;-75
2022/05/16 03:23:14;;;;;;;7.37;4.40;;;17.60;50.70;;;;;;4953859;28;20453;-74
2022/05/16 03:25:40;;;;;;;5.30;4.00;;;17.60;50.80;;;;;;4953536;28;20800;-75
2022/05/16 03:28:07;;;;;;;5.53;4.00;;;17.50;51.60;;;;;;4953526;28;20642;-75
2022/05/16 03:30:35;;;;;;;6.53;4.27;;;17.40;51.50;;;;;;4953956;28;20457;-76
2022/05/16 03:33:03;;;;;;;6.73;4.67;;;17.40;51.70;;;;;;4954271;28;20420;-75
2022/05/16 03:35:30;;;;;;;9.40;4.70;;;17.30;52.10;;;;;;4953552;28;20492;-74
2022/05/16 03:37:58;;;;;;;7.87;5.17;;;17.40;52.20;;;;;;4951331;28;20628;-75
2022/05/16 03:40:42;;;;;;;7.30;4.77;;;17.40;52.90;;;;;;4935087;29;20629;-75
2022/05/16 03:43:10;;;;;;;4.77;4.27;;;17.30;52.50;;;;;;4942550;29;20450;-74
2022/05/16 03:45:37;;;;;;;4.50;4.10;;;17.30;52.80;;;;;;4954521;29;20470;-75
2022/05/16 03:48:05;;;;;;;3.87;3.57;;;17.20;52.90;;;;;;4954987;29;20473;-76
2022/05/16 03:50:32;;;;;;;4.50;4.10;;;17.20;53.10;;;;;;4956451;29;20492;-75
2022/05/16 03:53:01;;;;;;;4.57;4.17;;;17.20;53.10;;;;;;4939273;29;20458;-76
2022/05/16 03:55:29;;;;;;;7.93;4.00;;;17.20;53.00;;;;;;4937902;29;20975;-75
2022/05/16 03:57:57;;;;;;;5.10;4.30;;;17.20;53.80;;;;;;4937165;29;20459;-75
2022/05/16 04:00:24;;;;;;;9.33;4.80;;;17.20;52.90;;;;;;4938311;29;20441;-76
2022/05/16 04:02:51;;;;;;;4.83;4.33;;;17.30;52.30;;;;;;4937662;29;20516;-75
2022/05/16 04:05:21;;;;;;;4.57;4.17;;;17.40;52.10;;;;;;4937739;29;20465;-76
2022/05/16 04:07:49;;;;;;;7.10;4.00;;;17.40;52.00;;;;;;4937525;29;20489;-75
2022/05/16 04:10:18;;;;;;;4.57;4.07;;;17.40;51.80;;;;;;4937530;29;20462;-76
2022/05/16 04:12:45;;;;;;;4.67;4.10;;;17.60;51.50;;;;;;4937284;29;20557;-75
2022/05/16 04:15:13;;;;;;;5.50;4.27;;;17.60;51.10;;;;;;4938378;29;20501;-75
2022/05/16 04:17:41;;;;;;;6.00;4.20;;;17.80;51.60;;;;;;4938220;29;20549;-76
2022/05/16 04:20:09;;;;;;;8.10;4.77;;;17.90;50.40;;;;;;4937988;29;20800;-74
2022/05/16 04:22:36;;;;;;;4.80;4.13;;;18.00;50.10;;;;;;4941609;29;20868;-76
2022/05/16 04:25:04;;;;;;;4.30;3.90;;;18.20;49.80;;;;;;4938064;29;20463;-75
2022/05/16 04:27:32;;;;;;;5.47;4.30;;;18.20;49.90;;;;;;4937947;29;20478;-76
2022/05/16 04:29:59;;;;;;;4.57;4.20;;;18.20;49.80;;;;;;4936364;29;21048;-74
2022/05/16 04:32:26;;;;;;;6.70;3.90;;;18.40;49.80;;;;;;4935799;29;20458;-75
2022/05/16 04:34:53;;;;;;;4.17;3.77;;;18.50;49.80;;;;;;4936870;29;20569;-75
2022/05/16 04:37:20;;;;;;;7.43;3.90;;;18.70;50.70;;;;;;4936954;29;20493;-75
2022/05/16 04:39:47;;;;;;;7.27;5.17;;;18.60;51.30;;;;;;4937029;29;20464;-74
2022/05/16 04:44:59;;;;;;;11.53;5.40;;;18.50;54.20;;;;;;4938035;29;20457;-74
2022/05/16 04:47:27;;;;;;;9.53;5.03;;;18.40;55.70;;;;;;4938205;29;20457;-74
2022/05/16 04:49:54;;;;;;;9.43;5.20;;;18.20;56.90;;;;;;4938872;29;20537;-75
2022/05/16 04:52:21;;;;;;;9.93;4.83;;;17.90;58.50;;;;;;4938576;29;20463;-75
2022/05/16 04:54:48;;;;;;;8.47;5.40;;;17.80;59.90;;;;;;4939041;29;20498;-74
2022/05/16 04:57:15;;;;;;;7.27;5.07;;;17.90;59.80;;;;;;4939617;29;20486;-75
2022/05/16 04:59:42;;;;;;;5.80;5.23;;;17.90;58.80;;;;;;4945838;29;20462;-75
2022/05/16 05:02:11;;;;;;;6.00;4.73;;;17.60;60.20;;;;;;4936507;29;20526;-75
2022/05/16 05:04:37;;;;;;;5.40;4.57;;;17.50;62.20;;;;;;4937758;29;20461;-74
2022/05/16 05:07:04;;;;;;;6.60;4.83;;;17.60;63.30;;;;;;4939699;29;20479;-76
2022/05/16 05:14:31;;;;;;;8.70;4.87;;;17.80;62.60;;;;;;4940774;29;20433;-74
2022/05/16 05:15:03;;;;;;;5.17;4.77;;;18.10;63.30;;;;;;4939456;29;20505;-75
2022/05/16 05:17:31;;;;;;;5.37;4.30;;;18.30;63.70;;;;;;4941313;29;20506;-75
2022/05/16 05:19:57;;;;;;;5.47;4.77;;;18.50;62.30;;;;;;4957685;29;20503;-77
2022/05/16 05:22:24;;;;;;;6.90;5.20;;;18.70;61.40;;;;;;4948446;29;20450;-75
2022/05/16 05:24:51;;;;;;;4.70;4.30;;;18.80;61.00;;;;;;4957708;29;20413;-76
2022/05/16 05:27:18;;;;;;;5.50;4.93;;;19.00;61.10;;;;;;4954432;28;20486;-75
2022/05/16 05:29:46;;;;;;;7.70;5.20;;;19.20;60.50;;;;;;4937063;29;20441;-75
2022/05/16 05:32:13;;;;;;;5.30;4.90;;;19.30;58.20;;;;;;4937463;29;20458;-75
2022/05/16 05:34:42;;;;;;;5.40;4.83;;;19.50;58.10;;;;;;4937416;29;20468;-75
2022/05/16 05:37:09;;;;;;;6.13;5.03;;;19.80;58.40;;;;;;4937629;29;20485;-75
2022/05/16 05:39:38;;;;;;;5.97;4.30;;;19.90;55.10;;;;;;4936615;29;20458;-75
2022/05/16 05:42:08;;;;;;;6.43;4.23;;;20.00;55.70;;;;;;4936518;29;20509;-75
2022/05/16 05:44:35;;;;;;;5.10;4.60;;;20.50;54.30;;;;;;4937151;29;20559;-75
2022/05/16 05:47:02;;;;;;;7.40;4.83;;;21.00;51.40;;;;;;4939467;29;20578;-75
2022/05/16 05:49:29;;;;;;;6.73;5.50;;;21.00;49.80;;;;;;4939655;29;20463;-75
2022/05/16 05:51:59;;;;;;;7.87;5.43;;;20.90;49.70;;;;;;4938064;29;20608;-75
2022/05/16 05:54:26;;;;;;;8.27;5.10;;;21.40;49.50;;;;;;4937911;29;20457;-75
2022/05/16 05:56:53;;;;;;;8.40;4.37;;;21.60;48.10;;;;;;4938544;29;20503;-75
2022/05/16 05:59:20;;;;;;;5.30;4.80;;;21.50;48.00;;;;;;4940235;29;20445;-74
2022/05/16 06:01:47;;;;;;;7.40;4.63;;;21.50;47.90;;;;;;4937784;29;20723;-75
2022/05/16 06:04:14;;;;;;;7.50;5.37;;;21.60;48.30;;;;;;4936903;29;20459;-74
2022/05/16 06:06:43;;;;;;;6.00;4.80;;;21.80;48.00;;;;;;4937438;29;20793;-75
2022/05/16 06:09:11;;;;;;;7.77;5.47;;;22.00;47.60;;;;;;4935782;29;20547;-72
2022/05/16 06:11:38;;;;;;;6.23;4.67;;;22.30;47.10;;;;;;4936554;29;20550;-74
2022/05/16 06:14:05;;;;;;;10.10;5.07;;;22.30;46.00;;;;;;4936869;29;20860;-75
2022/05/16 06:16:32;;;;;;;4.70;4.10;;;22.20;45.80;;;;;;4939692;29;20513;-77
2022/05/16 06:18:59;;;;;;;6.03;4.20;;;22.00;45.30;;;;;;4943006;29;20441;-73
2022/05/16 06:21:26;;;;;;;5.90;4.63;;;21.80;45.30;;;;;;4943808;29;20441;-74
2022/05/16 06:23:53;;;;;;;8.30;4.40;;;21.50;46.40;;;;;;4947610;29;20494;-74
2022/05/16 06:26:22;;;;;;;6.30;4.90;;;21.50;46.70;;;;;;4947185;29;20461;-76
2022/05/16 06:28:49;;;;;;;11.47;4.90;;;21.60;46.00;;;;;;4944723;29;20526;-74
2022/05/16 06:31:16;;;;;;;5.33;4.93;;;21.70;46.20;;;;;;4941089;29;20464;-74
2022/05/16 06:33:46;;;;;;;10.00;5.03;;;21.70;46.40;;;;;;4940650;29;20456;-75
2022/05/16 06:36:14;;;;;;;6.10;5.40;;;21.80;46.40;;;;;;4937883;29;20566;-75
2022/05/16 06:38:41;;;;;;;5.40;4.90;;;21.80;46.80;;;;;;4938947;29;20490;-77
2022/05/16 06:41:08;;;;;;;6.00;5.33;;;21.90;47.00;;;;;;4941121;29;21039;-75
2022/05/16 06:43:37;;;;;;;11.50;5.63;;;22.00;46.40;;;;;;4941442;29;20556;-75
2022/05/16 06:46:04;;;;;;;14.97;5.10;;;22.20;46.20;;;;;;4941644;29;20817;-75
2022/05/16 06:48:31;;;;;;;8.20;4.77;;;22.50;44.60;;;;;;4941435;29;20497;-75
2022/05/16 06:50:59;;;;;;;8.63;4.90;;;22.80;44.00;;;;;;4941231;29;20429;-75
2022/05/16 06:53:27;;;;;;;5.53;5.00;;;23.00;41.70;;;;;;4942024;29;20550;-73
2022/05/16 06:55:54;;;;;;;7.00;4.90;;;23.10;41.70;;;;;;4943299;29;20501;-75
2022/05/16 06:58:21;;;;;;;7.90;4.87;;;23.20;41.80;;;;;;4942041;29;20583;-74
2022/05/16 07:00:50;;;;;;;5.20;4.70;;;23.50;41.10;;;;;;4942217;29;20528;-75
2022/05/16 07:03:18;;;;;;;5.50;5.00;;;23.60;40.60;;;;;;4942505;29;20941;-74
2022/05/16 07:05:45;;;;;;;9.17;4.60;;;23.80;39.40;;;;;;4942153;29;20454;-75
2022/05/16 07:08:12;;;;;;;5.60;4.87;;;23.60;39.70;;;;;;4941499;29;20478;-75
2022/05/16 07:10:39;;;;;;;5.87;4.77;;;23.40;40.00;;;;;;4936754;29;20459;-75
2022/05/16 07:13:08;;;;;;;7.17;4.63;;;23.30;40.50;;;;;;4937227;29;20466;-75
2022/05/16 07:15:35;;;;;;;13.97;5.67;;;23.20;41.50;;;;;;4936843;29;20505;-74
2022/05/16 07:18:03;;;;;;;5.73;4.50;;;23.20;41.20;;;;;;4937537;29;20477;-74
2022/05/16 07:20:30;;;;;;;7.50;5.03;;;22.90;41.50;;;;;;4937342;29;20991;-74
2022/05/16 07:22:58;;;;;;;5.10;4.60;;;22.70;41.30;;;;;;4940348;29;20469;-75
2022/05/16 07:25:27;;;;;;;6.67;4.90;;;22.70;41.30;;;;;;4944651;29;20470;-74
2022/05/16 07:27:59;;;;;;;11.30;5.37;;;22.60;41.80;;;;;;4944122;29;21016;-74
2022/05/16 07:30:27;;;;;;;5.90;5.30;;;22.80;41.50;;;;;;4942289;29;20941;-74
2022/05/16 07:32:55;;;;;;;6.13;4.70;;;23.10;41.70;;;;;;4944723;29;20437;-74
2022/05/16 07:35:26;;;;;;;5.70;4.57;;;23.50;41.30;;;;;;4943393;29;20497;-75
2022/05/16 07:37:54;;;;;;;7.60;4.60;;;23.80;40.00;;;;;;4946772;29;20488;-76
2022/05/16 07:40:22;;;;;;;10.57;4.90;;;24.10;39.90;;;;;;4951394;29;20469;-75
2022/05/16 07:42:50;;;;;;;9.90;4.50;;;24.50;39.30;;;;;;4957944;29;20458;-73
2022/05/16 07:45:18;;;;;;;10.93;5.03;;;24.80;37.60;;;;;;4955073;29;20443;-72
2022/05/16 07:47:45;;;;;;;5.90;4.87;;;24.40;38.10;;;;;;4959966;28;20486;-73
2022/05/16 07:50:12;;;;;;;9.23;4.40;;;24.40;38.50;;;;;;4948243;29;21029;-76
2022/05/16 07:52:45;;;;;;;8.80;4.47;;;24.40;38.40;;;;;;4938704;29;20441;-75
2022/05/16 07:55:12;;;;;;;5.53;4.40;;;24.30;38.60;;;;;;4939411;29;20462;-75
2022/05/16 07:57:39;;;;;;;7.10;4.80;;;24.00;39.40;;;;;;4938750;29;20482;-74
2022/05/16 08:00:07;;;;;;;8.93;4.60;;;23.90;39.70;;;;;;4939321;29;20469;-76
2022/05/16 08:02:34;;;;;;;7.87;4.80;;;23.80;39.90;;;;;;4938020;29;20444;-75
2022/05/16 08:05:01;;;;;;;5.57;5.07;;;23.70;40.60;;;;;;4937708;29;20454;-76
2022/05/16 08:07:28;;;;;;;5.17;4.67;;;23.60;40.90;;;;;;4937685;29;20887;-76
2022/05/16 08:12:40;;;;;;;7.43;4.97;;;23.60;42.40;;;;;;4938242;29;20527;-75
2022/05/16 08:15:08;;;;;;;38.03;7.43;;;23.80;41.50;;;;;;4937780;29;20468;-75
2022/05/16 08:17:35;;;;;;;6.37;4.77;;;24.00;40.90;;;;;;4938073;29;20505;-74
2022/05/16 08:20:05;;;;;;;12.30;5.23;;;24.00;41.10;;;;;;4937579;29;20886;-75
2022/05/16 08:22:34;;;;;;;7.90;4.77;;;23.80;42.20;;;;;;4937708;29;20462;-75
2022/05/16 08:25:03;;;;;;;5.90;5.40;;;23.80;42.30;;;;;;4937503;29;20496;-76
2022/05/16 08:27:30;;;;;;;6.13;5.47;;;23.80;42.30;;;;;;4937356;29;20478;-75
2022/05/16 08:29:56;;;;;;;26.57;5.40;;;23.90;42.50;;;;;;4937853;29;20473;-75
2022/05/16 08:32:24;;;;;;;21.80;6.27;;;23.80;42.30;;;;;;4937309;29;20831;-76
2022/05/16 08:34:51;;;;;;;14.10;5.57;;;23.70;42.30;;;;;;4937498;29;20489;-74
2022/05/16 08:40:05;;;;;;;9.07;5.03;;;23.70;42.30;;;;;;4936955;29;20485;-75
2022/05/16 08:42:50;;;;;;;5.60;4.97;;;23.80;42.30;;;;;;4937075;29;20834;-74
2022/05/16 08:45:21;;;;;;;8.03;5.43;;;23.70;42.40;;;;;;4938029;29;20890;-74
2022/05/16 08:47:54;;;;;;;8.13;5.50;;;23.70;42.30;;;;;;4936887;29;20997;-74
2022/05/16 08:50:26;;;;;;;7.60;4.80;;;23.80;42.30;;;;;;4936883;29;20496;-75
2022/05/16 08:52:57;;;;;;;6.50;4.30;;;23.90;42.50;;;;;;4936962;29;21014;-76
2022/05/16 08:55:31;;;;;;;6.73;5.13;;;24.00;42.60;;;;;;4937043;29;20459;-74
2022/05/16 08:58:03;;;;;;;6.27;4.33;;;24.00;41.20;;;;;;4936479;29;20460;-74
2022/05/16 09:00:36;;;;;;;7.30;4.97;;;24.20;40.60;;;;;;4936272;29;20476;-75
2022/05/16 09:03:06;;;;;;;18.20;5.20;;;24.30;39.90;;;;;;4936640;29;20437;-75
2022/05/16 09:05:38;;;;;;;25.13;5.50;;;24.40;39.80;;;;;;4937065;29;20883;-75
2022/05/16 09:08:11;;;;;;;15.53;6.73;;;24.40;39.10;;;;;;4937675;29;20467;-75
2022/05/16 09:11:00;;;;;;;10.30;4.90;;;24.40;39.40;;;;;;4942594;29;20449;-75
2022/05/16 09:13:37;;;;;;;6.27;4.63;;;24.30;38.30;;;;;;4949170;29;20890;-75
2022/05/16 09:16:12;;;;;;;7.10;4.57;;;24.20;37.60;;;;;;4945605;29;20530;-76
2022/05/16 09:18:45;;;;;;;6.60;4.60;;;24.30;37.40;;;;;;4940475;29;20481;-75
2022/05/16 09:21:16;;;;;;;7.70;4.93;;;24.40;37.20;;;;;;4947134;29;20454;-74
2022/05/16 09:23:55;;;;;;;7.47;4.60;;;24.50;37.00;;;;;;4946847;29;20497;-75
2022/05/16 09:26:35;;;;;;;9.17;4.50;;;24.90;36.30;;;;;;4937501;29;20458;-76
2022/05/16 09:29:11;;;;;;;9.90;4.60;;;25.20;35.70;;;;;;4937780;29;20466;-74
2022/05/16 09:31:40;;;;;;;4.93;4.40;;;25.50;35.30;;;;;;4943799;29;20560;-75
2022/05/16 09:34:09;;;;;;;6.83;4.70;;;25.80;34.70;;;;;;4938735;29;20562;-75
2022/05/16 09:36:38;;;;;;;7.37;4.70;;;26.10;33.90;;;;;;4936678;29;21001;-75
2022/05/16 09:39:07;;;;;;;7.77;4.20;;;26.60;34.20;;;;;;4937170;29;20464;-75
2022/05/16 09:41:44;;;;;;;7.90;3.90;;;26.90;32.80;;;;;;4939104;29;20450;-75
2022/05/16 09:44:24;;;;;;;4.83;3.60;;;26.90;32.40;;;;;;4939433;29;20471;-76
2022/05/16 09:46:52;;;;;;;5.90;3.50;;;26.70;32.00;;;;;;4940757;29;20559;-76
2022/05/16 09:49:23;;;;;;;7.33;3.53;;;26.50;31.60;;;;;;4939889;29;20565;-75
2022/05/16 09:51:52;;;;;;;8.87;3.00;;;26.50;30.90;;;;;;4939009;29;20448;-75
2022/05/16 09:54:26;;;;;;;4.80;2.97;;;26.30;30.60;;;;;;4940333;29;20453;-75
2022/05/16 09:57:03;;;;;;;11.17;3.00;;;26.40;30.00;;;;;;4939516;29;20525;-74
2022/05/16 09:59:35;;;;;;;6.63;2.60;;;26.30;29.90;;;;;;4938346;29;21028;-74
2022/05/16 10:02:20;;;;;;;7.90;2.77;;;26.10;30.10;;;;;;4949400;29;20497;-75
2022/05/16 10:04:51;;;;;;;12.23;2.60;;;25.70;30.60;;;;;;4948067;29;20538;-76
2022/05/16 10:07:29;;;;;;;11.13;2.60;;;25.30;31.30;;;;;;4950768;29;20479;-75
2022/05/16 10:09:57;;;;;;;6.70;3.37;;;25.00;32.30;;;;;;4955103;29;20448;-76
2022/05/16 10:12:28;;;;;;;13.83;3.03;;;25.00;32.70;;;;;;4943872;29;20461;-75
2022/05/16 10:14:55;;;;;;;8.37;2.50;;;24.90;32.20;;;;;;4944268;29;20514;-74
2022/05/16 10:17:29;;;;;;;9.67;2.63;;;24.90;31.90;;;;;;4939628;29;20618;-77
2022/05/16 10:20:00;;;;;;;8.37;2.63;;;24.60;32.80;;;;;;4939781;29;20468;-76
2022/05/16 10:22:29;;;;;;;6.93;2.40;;;24.50;32.70;;;;;;4941242;29;20497;-76
2022/05/16 10:24:59;;;;;;;5.17;2.00;;;24.60;32.80;;;;;;4947949;29;20547;-75
2022/05/16 10:27:29;;;;;;;5.53;2.20;;;24.70;32.80;;;;;;4957018;29;20490;-74
2022/05/16 10:29:58;;;;;;;7.30;2.67;;;24.60;32.80;;;;;;4955065;29;20451;-75
2022/05/16 10:35:23;;;;;;;6.50;2.57;;;24.60;32.80;;;;;;4958037;28;20467;-75
2022/05/16 10:37:54;;;;;;;5.07;2.10;;;24.20;32.40;;;;;;4958570;28;20468;-74
2022/05/16 10:40:28;;;;;;;5.87;2.10;;;24.20;32.40;;;;;;4958531;29;20450;-73
2022/05/16 10:43:19;;;;;;;2.53;1.70;;;24.10;32.30;;;;;;4941534;29;20519;-74
2022/05/16 10:45:52;;;;;;;5.60;2.07;;;23.90;32.90;;;;;;4940026;29;20509;-75
2022/05/16 10:48:26;;;;;;;9.30;1.77;;;23.60;32.20;;;;;;4939283;29;20570;-75
2022/05/16 10:50:58;;;;;;;4.40;1.83;;;23.30;33.50;;;;;;4936379;29;20494;-75
2022/05/16 10:53:29;;;;;;;4.03;1.77;;;23.20;34.20;;;;;;4936014;29;20469;-75
2022/05/16 10:56:02;;;;;;;4.10;1.70;;;22.80;35.50;;;;;;4935862;29;20491;-75
2022/05/16 10:58:47;;;;;;;10.63;1.70;;;22.80;36.20;;;;;;4935395;29;20588;-76
2022/05/16 11:01:20;;;;;;;3.73;1.70;;;22.70;37.20;;;;;;4939514;29;20455;-74
2022/05/16 11:04:05;;;;;;;4.53;2.03;;;22.30;38.70;;;;;;4939746;29;20440;-75
2022/05/16 11:06:49;;;;;;;5.27;2.07;;;22.00;40.70;;;;;;4939489;29;20941;-75
2022/05/16 11:09:24;;;;;;;3.87;1.87;;;21.70;40.80;;;;;;4939375;29;20460;-77
2022/05/16 11:11:57;;;;;;;2.10;1.90;;;21.60;42.50;;;;;;4939146;29;20439;-75
2022/05/16 11:14:33;;;;;;;3.73;1.80;;;21.50;43.40;;;;;;4939356;29;20463;-77
2022/05/16 11:17:08;;;;;;;6.60;2.20;;;21.30;44.60;;;;;;4939115;29;20494;-76
2022/05/16 11:19:44;;;;;;;3.97;2.40;;;21.20;46.10;;;;;;4941213;29;20886;-77
2022/05/16 11:22:18;;;;;;;3.20;1.90;;;21.10;47.10;;;;;;4939765;29;20473;-77
2022/05/16 11:24:52;;;;;;;6.67;2.60;;;21.20;48.00;;;;;;4939372;29;20458;-75
2022/05/16 11:27:27;;;;;;;3.57;1.90;;;21.10;48.50;;;;;;4938593;29;20494;-75
2022/05/16 11:30:06;;;;;;;2.73;1.93;;;20.90;49.70;;;;;;4938790;29;20541;-75
2022/05/16 11:32:54;;;;;;;3.20;2.07;;;20.60;51.00;;;;;;4939361;29;20462;-76
2022/05/16 11:35:28;;;;;;;6.80;2.60;;;20.50;52.70;;;;;;4939112;29;20455;-76
2022/05/16 11:38:16;;;;;;;3.83;2.43;;;20.50;54.70;;;;;;4940665;29;20524;-76
2022/05/16 11:40:50;;;;;;;4.27;2.30;;;20.70;54.10;;;;;;4945864;29;20996;-76
2022/05/16 11:43:24;;;;;;;3.47;2.30;;;20.80;53.50;;;;;;4945554;29;20464;-75
2022/05/16 11:46:20;;;;;;;3.80;2.07;;;21.00;53.10;;;;;;4960481;28;20450;-75
2022/05/16 11:48:57;;;;;;;3.07;2.03;;;20.90;51.90;;;;;;4961263;28;20477;-74
2022/05/16 11:51:34;;;;;;;4.73;2.53;;;20.90;52.60;;;;;;4961994;29;20458;-74
2022/05/16 11:54:04;;;;;;;2.80;2.60;;;20.90;52.80;;;;;;4962081;28;20454;-74
2022/05/16 12:02:19;;;;;;;6.73;2.80;;;20.90;54.80;;;;;;4961224;29;20443;-75
2022/05/16 12:04:48;;;;;;;5.07;2.67;;;20.60;56.00;;;;;;4961284;28;20446;-76
2022/05/16 12:07:22;;;;;;;5.07;2.90;;;20.50;55.70;;;;;;4960420;29;20553;-76
2022/05/16 12:09:56;;;;;;;3.57;2.40;;;20.40;56.70;;;;;;4959466;29;20452;-75
2022/05/16 12:12:34;;;;;;;4.40;2.40;;;20.50;56.60;;;;;;4960408;29;20426;-75
2022/05/16 12:15:28;;;;;;;5.43;2.53;;;20.70;55.60;;;;;;4960969;29;20465;-75
2022/05/16 12:17:59;;;;;;;4.33;2.10;;;20.70;55.10;;;;;;4960646;29;20474;-75
2022/05/16 12:20:39;;;;;;;4.33;2.20;;;21.10;53.60;;;;;;4959984;29;20452;-76
2022/05/16 12:23:08;;;;;;;4.90;2.10;;;21.50;51.70;;;;;;4961475;28;20511;-76
2022/05/16 12:25:37;;;;;;;3.17;1.90;;;21.90;50.60;;;;;;4961694;28;20440;-76
2022/05/16 12:28:21;;;;;;;2.83;1.70;;;22.30;48.40;;;;;;4961449;28;20461;-76
2022/05/16 12:30:52;;;;;;;7.03;2.40;;;22.50;47.10;;;;;;4961129;28;20433;-75
2022/05/16 12:33:49;;;;;;;3.37;2.10;;;23.00;45.90;;;;;;4959478;29;20458;-76
2022/05/16 12:36:18;;;;;;;3.23;1.70;;;23.30;45.40;;;;;;4958769;29;20417;-76
2022/05/16 12:38:49;;;;;;;4.80;2.00;;;23.30;43.80;;;;;;4959186;29;20516;-76
2022/05/16 12:41:47;;;;;;;3.20;2.10;;;23.40;42.90;;;;;;4958088;29;20431;-75
2022/05/16 12:44:44;;;;;;;5.57;2.40;;;23.40;42.70;;;;;;4949032;29;20453;-75
2022/05/16 12:47:42;;;;;;;2.93;1.83;;;23.60;42.20;;;;;;4935114;29;20488;-75
2022/05/16 12:50:35;;;;;;;4.07;1.60;;;23.90;42.50;;;;;;4932613;29;20466;-75
2022/05/16 12:53:46;;;;;;;2.67;2.10;;;23.80;42.30;;;;;;4937387;29;20461;-76
2022/05/16 12:56:22;;;;;;;4.10;1.80;;;23.70;42.30;;;;;;4926744;29;20500;-76
2022/05/16 12:58:57;;;;;;;3.33;1.70;;;23.80;42.30;;;;;;4940857;29;20559;-75
2022/05/16 13:01:32;;;;;;;3.30;1.97;;;23.90;42.50;;;;;;4941628;29;20477;-75
2022/05/16 13:04:19;;;;;;;5.40;2.13;;;24.00;42.60;;;;;;4944317;29;20465;-75
2022/05/16 13:06:54;;;;;;;2.17;1.80;;;24.10;40.90;;;;;;4942823;29;20492;-75
2022/05/16 13:09:37;;;;;;;3.40;1.93;;;24.20;40.40;;;;;;4937320;29;20637;-75
2022/05/16 13:12:12;;;;;;;5.00;2.10;;;24.20;40.80;;;;;;4937919;29;20496;-74
2022/05/16 13:14:49;;;;;;;3.53;1.90;;;24.10;41.30;;;;;;4938628;29;20456;-74
2022/05/16 13:17:31;;;;;;;4.80;2.00;;;24.30;40.80;;;;;;4937829;29;20500;-76
2022/05/16 13:20:02;;;;;;;4.30;2.13;;;24.50;40.40;;;;;;4938351;29;20518;-74
2022/05/16 13:22:31;;;;;;;4.00;2.10;;;24.60;39.00;;;;;;4937659;29;20485;-76
2022/05/16 13:24:58;;;;;;;4.80;1.93;;;24.70;38.40;;;;;;4938772;29;20465;-75
2022/05/16 13:30:14;;;;;;;8.70;2.17;;;24.80;39.80;;;;;;4940069;29;20421;-75
2022/05/16 13:32:41;;;;;;;2.50;1.87;;;24.70;39.70;;;;;;4942623;29;20462;-75
2022/05/16 13:35:10;;;;;;;2.70;1.73;;;24.90;38.50;;;;;;4950471;29;20413;-75
2022/05/16 13:37:44;;;;;;;5.27;2.00;;;25.10;38.10;;;;;;4951546;29;20539;-76